Archival Weather

Snohomish County (Paine Fld)

Everett, Washington (KPAE)

Report from: Sunday, November 5, 2023 6:53 PM PST
Current time: Monday, June 24, 2024 2:03 AM PDT

Current weather – Weather history – Daily summaries
Weather forecast

Present weatherLight rain, mist
Temperature11.1°C (52.0°F)
Dew point9.4°C (48.9°F)
Winds 8 kts (4.1 m/s, 9.2 mph) South-Southeast (150°)
Visibility6 mi. (9.7 km)
Clouds Few clouds 1,500 ft. (457 m)
Ceiling: Broken clouds 3,700 ft. (1,128 m)
Overcast 4,800 ft. (1,463 m)
Altimeter29.72 in.Hg (1006 mB)
Precipitiation0.10 in. (3 mm)
Precip last 3 hours0.12 in. (3 mm)
Relative humidity89 %
Density altitude-65 ft. (-20 m)
Sea-level pressure100.6 kPa (1006 mB, 29.72 in.Hg)
Remarks Automated weather observing station with precipitation discriminator
Pressure falling more slowly
Flight conditions Visual Meteorological Conditions
Raw dataKPAE 060253Z 15008KT 6SM -RA BR FEW015 BKN037 OVC048 11/09 A2972 RMK AO2 SLP064 P0010 60012 T01110094 56002
An error has occurred. This application may no longer respond until reloaded. Reload 🗙